createdAt,value
2018-07-25T00:00:15.403Z,44.71
2018-07-25T00:00:41.546Z,44.71
2018-07-25T00:01:07.708Z,44.81
2018-07-25T00:01:33.874Z,44.52
2018-07-25T00:02:00.014Z,44.62
2018-07-25T00:02:26.152Z,44.81
2018-07-25T00:02:52.301Z,44.9
2018-07-25T00:03:18.433Z,45
2018-07-25T00:03:44.576Z,45.2
2018-07-25T00:04:10.709Z,45.1
2018-07-25T00:04:36.845Z,45.2
2018-07-25T00:05:02.989Z,45
2018-07-25T00:05:29.121Z,44.71
2018-07-25T00:05:55.295Z,44.9
2018-07-25T00:06:21.432Z,45.2
2018-07-25T00:06:47.571Z,45.39
2018-07-25T00:07:13.713Z,45.2
2018-07-25T00:07:39.854Z,45.28
2018-07-25T00:08:05.996Z,45.49
2018-07-25T00:08:32.134Z,45.57
2018-07-25T00:08:58.272Z,45.39
2018-07-25T00:09:24.418Z,45.37
2018-07-25T00:09:50.560Z,45.59
2018-07-25T00:10:16.699Z,45.49
2018-07-25T00:10:42.840Z,45.49
2018-07-25T00:11:08.982Z,45.76
2018-07-25T00:11:35.120Z,45.28
2018-07-25T00:12:01.278Z,45.47
2018-07-25T00:12:27.418Z,46.05
2018-07-25T00:12:53.556Z,45.67
2018-07-25T00:13:19.689Z,45.86
2018-07-25T00:13:45.863Z,45.95
2018-07-25T00:14:11.998Z,45.76
2018-07-25T00:14:38.138Z,45.86
2018-07-25T00:15:04.279Z,45.95
2018-07-25T00:15:30.422Z,45.95
2018-07-25T00:15:56.556Z,45.86
2018-07-25T00:16:22.706Z,46.25
2018-07-25T00:16:48.843Z,46.25
2018-07-25T00:17:14.982Z,46.54
2018-07-25T00:17:41.113Z,46.54
2018-07-25T00:18:07.256Z,46.64
2018-07-25T00:18:33.400Z,46.64
2018-07-25T00:18:59.538Z,46.44
2018-07-25T00:19:25.672Z,46.54
2018-07-25T00:19:51.837Z,46.54
2018-07-25T00:20:18.003Z,46.64
2018-07-25T00:20:44.178Z,46.54
2018-07-25T00:21:10.314Z,46.64
2018-07-25T00:21:36.454Z,46.54
2018-07-25T00:22:02.604Z,46.64
2018-07-25T00:22:28.739Z,46.64
2018-07-25T00:22:54.902Z,46.64
2018-07-25T00:23:21.049Z,46.93
2018-07-25T00:23:47.185Z,47.32
2018-07-25T00:24:13.354Z,47.2
2018-07-25T00:24:39.499Z,46.93
2018-07-25T00:25:05.636Z,47.8
2018-07-25T00:25:31.801Z,47.9
2018-07-25T00:25:57.941Z,47.88
2018-07-25T00:26:24.079Z,47.78
2018-07-25T00:26:50.218Z,47.69
2018-07-25T00:27:16.357Z,47.78
2018-07-25T00:27:42.503Z,47.59
2018-07-25T00:28:08.667Z,47.49
2018-07-25T00:28:34.828Z,47.98
2018-07-25T00:29:00.963Z,47.98
2018-07-25T00:29:27.096Z,48.17
2018-07-25T00:29:53.242Z,47.98
2018-07-25T00:30:19.381Z,47.98
2018-07-25T00:30:45.523Z,48.17
2018-07-25T00:31:11.670Z,48.17
2018-07-25T00:31:37.812Z,48.27
2018-07-25T00:32:03.937Z,48.36
2018-07-25T00:32:30.078Z,48.66
2018-07-25T00:32:56.222Z,48.66
2018-07-25T00:33:22.377Z,48.85
2018-07-25T00:33:48.512Z,49.05
2018-07-25T00:34:14.675Z,49.24
2018-07-25T00:34:40.813Z,49.05
2018-07-25T00:35:06.953Z,49.05
2018-07-25T00:35:33.094Z,49.15
2018-07-25T00:35:59.234Z,49.05
2018-07-25T00:36:25.446Z,49.15
2018-07-25T00:36:51.522Z,48.75
2018-07-25T00:37:17.662Z,49.41
2018-07-25T00:37:43.794Z,49.32
2018-07-25T00:38:09.940Z,49.44
2018-07-25T00:38:36.079Z,49.34
2018-07-25T00:39:02.220Z,49.44
2018-07-25T00:39:28.385Z,49.54
2018-07-25T00:39:54.520Z,49.44
2018-07-25T00:40:20.681Z,49.54
2018-07-25T00:40:46.826Z,49.83
2018-07-25T00:41:12.969Z,49.73
2018-07-25T00:41:39.127Z,49.99
2018-07-25T00:42:05.291Z,49.8
2018-07-25T00:42:31.434Z,50.09
2018-07-25T00:42:57.577Z,50.09
2018-07-25T00:43:23.714Z,50.12
2018-07-25T00:43:49.860Z,50.19
2018-07-25T00:44:16.031Z,49.99
2018-07-25T00:44:42.602Z,49.99
2018-07-25T00:45:08.762Z,50.38
2018-07-25T00:45:34.905Z,50.29
2018-07-25T00:46:01.069Z,50.29
2018-07-25T00:46:27.206Z,50.68
2018-07-25T00:46:53.372Z,50.78
2018-07-25T00:47:19.514Z,50.68
2018-07-25T00:47:45.652Z,50.78
2018-07-25T00:48:11.793Z,50.68
2018-07-25T00:48:37.933Z,50.58
2018-07-25T00:49:04.077Z,51.07
2018-07-25T00:49:30.221Z,50.97
2018-07-25T00:49:56.384Z,50.87
2018-07-25T00:50:22.518Z,50.97
2018-07-25T00:50:48.661Z,50.87
2018-07-25T00:51:14.833Z,50.97
2018-07-25T00:51:40.976Z,51.26
2018-07-25T00:52:07.119Z,51.26
2018-07-25T00:52:33.261Z,51.26
2018-07-25T00:52:59.402Z,51.17
2018-07-25T00:53:25.536Z,50.97
2018-07-25T00:53:51.681Z,51.07
2018-07-25T00:54:17.826Z,51.17
2018-07-25T00:54:43.964Z,51.07
2018-07-25T00:55:10.091Z,51.43
2018-07-25T00:55:36.253Z,51.62
2018-07-25T00:56:02.395Z,51.43
2018-07-25T00:56:28.537Z,51.82
2018-07-25T00:56:54.670Z,51.94
2018-07-25T00:57:20.814Z,51.72
2018-07-25T00:57:46.954Z,52.01
2018-07-25T00:58:13.097Z,51.92
2018-07-25T00:58:39.259Z,51.72
2018-07-25T00:59:05.406Z,52.21
2018-07-25T00:59:31.539Z,52.11
2018-07-25T00:59:57.705Z,51.92
2018-07-25T01:00:23.847Z,51.62
2018-07-25T01:00:49.979Z,51.62
2018-07-25T01:01:16.122Z,51.82
2018-07-25T01:01:42.284Z,52.01
2018-07-25T01:02:08.423Z,52.31
2018-07-25T01:02:34.560Z,52.31
2018-07-25T01:03:00.703Z,52.4
2018-07-25T01:03:26.842Z,52.4
2018-07-25T01:03:53.031Z,53.08
2018-07-25T01:04:19.173Z,52.98
2018-07-25T01:04:45.314Z,52.79
2018-07-25T01:05:11.451Z,52.69
2018-07-25T01:05:37.596Z,52.98
2018-07-25T01:06:03.786Z,52.79
2018-07-25T01:06:29.911Z,52.98
2018-07-25T01:06:56.051Z,52.79
2018-07-25T01:07:22.189Z,53.54
2018-07-25T01:07:48.332Z,53.64
2018-07-25T01:08:14.504Z,53.16
2018-07-25T01:08:40.643Z,53.45
2018-07-25T01:09:06.785Z,53.57
2018-07-25T01:09:32.940Z,53.25
2018-07-25T01:09:59.084Z,53.25
2018-07-25T01:10:25.223Z,53.25
2018-07-25T01:10:51.361Z,53.35
2018-07-25T01:11:17.502Z,54.42
2018-07-25T01:11:43.645Z,54.03
2018-07-25T01:12:09.786Z,53.93
2018-07-25T01:12:35.940Z,53.74
2018-07-25T01:13:02.076Z,54.42
2018-07-25T01:13:28.234Z,53.83
2018-07-25T01:13:54.400Z,54.42
2018-07-25T01:14:20.534Z,54.42
2018-07-25T01:14:46.673Z,54.61
2018-07-25T01:15:12.806Z,54.8
2018-07-25T01:15:38.946Z,54.52
2018-07-25T01:16:05.097Z,55.19
2018-07-25T01:16:31.239Z,55
2018-07-25T01:16:57.372Z,55.29
2018-07-25T01:17:23.510Z,55.65
2018-07-25T01:17:49.655Z,55.36
2018-07-25T01:18:15.785Z,55.27
2018-07-25T01:18:41.925Z,55.55
2018-07-25T01:19:08.071Z,55.85
2018-07-25T01:19:34.206Z,55.94
2018-07-25T01:20:00.345Z,55.85
2018-07-25T01:20:26.511Z,55.85
2018-07-25T01:20:52.666Z,55.58
2018-07-25T01:21:18.808Z,55.36
2018-07-25T01:21:44.949Z,56.16
2018-07-25T01:22:11.111Z,55.94
2018-07-25T01:22:37.251Z,55.55
2018-07-25T01:23:03.393Z,55.88
2018-07-25T01:23:29.528Z,56.34
2018-07-25T01:23:55.674Z,56.34
2018-07-25T01:24:21.813Z,56.52
2018-07-25T01:24:47.949Z,56.24
2018-07-25T01:25:14.088Z,56.34
2018-07-25T01:25:40.254Z,56.24
2018-07-25T01:26:06.395Z,56.52
2018-07-25T01:26:32.533Z,56.24
2018-07-25T01:26:58.671Z,56.34
2018-07-25T01:27:24.804Z,56.34
2018-07-25T01:27:50.945Z,56.62
2018-07-25T01:28:17.086Z,56.62
2018-07-25T01:28:43.235Z,56.72
2018-07-25T01:29:09.378Z,56.82
2018-07-25T01:29:35.519Z,56.62
2018-07-25T01:30:01.657Z,56.62
2018-07-25T01:30:27.794Z,56.82
2018-07-25T01:30:53.936Z,56.52
2018-07-25T01:31:20.082Z,56.82
2018-07-25T01:31:46.218Z,57.11
2018-07-25T01:32:12.389Z,57.11
2018-07-25T01:32:38.558Z,57.21
2018-07-25T01:33:04.707Z,57.11
2018-07-25T01:33:30.855Z,57.31
2018-07-25T01:33:57.017Z,57.5
2018-07-25T01:34:23.176Z,57.4
2018-07-25T01:34:49.325Z,57.21
2018-07-25T01:35:15.453Z,57.21
2018-07-25T01:35:41.597Z,57.69
2018-07-25T01:36:07.739Z,57.6
2018-07-25T01:36:33.899Z,57.69
2018-07-25T01:37:00.046Z,58.08
2018-07-25T01:37:26.175Z,58.05
2018-07-25T01:37:52.312Z,57.69
2018-07-25T01:38:18.453Z,58.15
2018-07-25T01:38:44.593Z,58.05
2018-07-25T01:39:10.740Z,57.76
2018-07-25T01:39:36.905Z,57.98
2018-07-25T01:40:03.040Z,58.18
2018-07-25T01:40:29.178Z,57.67
2018-07-25T01:40:55.319Z,58.08
2018-07-25T01:41:21.513Z,58.08
2018-07-25T01:41:47.679Z,58.05
2018-07-25T01:42:13.817Z,57.76
2018-07-25T01:42:39.955Z,58.34
2018-07-25T01:43:06.097Z,57.67
2018-07-25T01:43:32.244Z,58.05
2018-07-25T01:43:58.389Z,58.05
2018-07-25T01:44:24.523Z,58.83
2018-07-25T01:44:50.657Z,58.64
2018-07-25T01:45:16.818Z,58.73
2018-07-25T01:45:42.954Z,58.73
2018-07-25T01:46:09.090Z,58.64
2018-07-25T01:46:35.237Z,58.34
2018-07-25T01:47:01.373Z,58.44
2018-07-25T01:47:27.516Z,58.44
2018-07-25T01:47:53.677Z,58.44
2018-07-25T01:48:19.811Z,58.73
2018-07-25T01:48:45.951Z,58.25
2018-07-25T01:49:12.093Z,58.25
2018-07-25T01:49:38.233Z,58.25
2018-07-25T01:50:04.374Z,58.34
2018-07-25T01:50:30.534Z,58.34
2018-07-25T01:50:56.675Z,58.44
2018-07-25T01:51:22.818Z,58.34
2018-07-25T01:51:48.979Z,58.34
2018-07-25T01:52:15.148Z,58.34
2018-07-25T01:52:41.289Z,58.73
2018-07-25T01:53:07.433Z,59.03
2018-07-25T01:53:33.577Z,58.93
2018-07-25T01:53:59.710Z,59.03
2018-07-25T01:54:25.843Z,59.03
2018-07-25T01:54:51.986Z,58.93
2018-07-25T01:55:18.155Z,58.93
2018-07-25T01:55:44.295Z,59.03
2018-07-25T01:56:10.427Z,59.03
2018-07-25T01:56:36.599Z,59.12
2018-07-25T01:57:02.753Z,59.41
2018-07-25T01:57:28.916Z,58.83
2018-07-25T01:57:55.059Z,58.93
2018-07-25T01:58:21.195Z,59.31
2018-07-25T01:58:47.360Z,59.22
2018-07-25T01:59:13.503Z,59.03
2018-07-25T01:59:39.645Z,59.12
2018-07-25T02:00:05.809Z,59.19
2018-07-25T02:00:31.947Z,59.09
2018-07-25T02:00:58.089Z,59.22
2018-07-25T02:01:24.317Z,59.03
2018-07-25T02:01:50.405Z,59.09
2018-07-25T02:02:16.541Z,59.09
2018-07-25T02:02:42.675Z,59.19
2018-07-25T02:03:08.848Z,59.19
2018-07-25T02:03:34.986Z,59.19
2018-07-25T02:04:01.195Z,59.67
2018-07-25T02:04:27.295Z,59.38
2018-07-25T02:04:53.430Z,59.48
2018-07-25T02:05:19.572Z,59.28
2018-07-25T02:05:45.723Z,59.28
2018-07-25T02:06:11.863Z,59.48
2018-07-25T02:06:37.999Z,59.48
2018-07-25T02:07:04.161Z,59.48
2018-07-25T02:07:30.307Z,59.28
2018-07-25T02:07:56.444Z,59.38
2018-07-25T02:08:22.622Z,59.48
2018-07-25T02:08:48.764Z,59.58
2018-07-25T02:09:14.909Z,59.38
2018-07-25T02:09:41.057Z,59.67
2018-07-25T02:10:07.261Z,59.67
2018-07-25T02:10:33.402Z,59.48
2018-07-25T02:10:59.541Z,59.48
2018-07-25T02:11:25.707Z,59.48
2018-07-25T02:11:51.861Z,59.38
2018-07-25T02:12:18.028Z,59.28
2018-07-25T02:12:44.190Z,59.28
2018-07-25T02:13:10.336Z,59.48
2018-07-25T02:13:36.507Z,59.77
2018-07-25T02:14:02.640Z,59.58
2018-07-25T02:14:28.777Z,59.64
2018-07-25T02:14:54.969Z,59.67
2018-07-25T02:15:21.107Z,59.48
2018-07-25T02:15:47.272Z,59.77
2018-07-25T02:16:13.405Z,59.48
2018-07-25T02:16:39.547Z,59.67
2018-07-25T02:17:05.689Z,59.58
2018-07-25T02:17:31.849Z,59.58
2018-07-25T02:17:57.989Z,59.58
2018-07-25T02:18:24.132Z,59.58
2018-07-25T02:18:50.298Z,59.48
2018-07-25T02:19:16.439Z,59.64
2018-07-25T02:19:42.601Z,60.35
2018-07-25T02:20:08.737Z,60.32
2018-07-25T02:20:34.871Z,60.23
2018-07-25T02:21:01.035Z,60.13
2018-07-25T02:21:27.170Z,60.32
2018-07-25T02:21:53.315Z,60.23
2018-07-25T02:22:19.453Z,60.13
2018-07-25T02:22:45.593Z,59.94
2018-07-25T02:23:11.784Z,60.52
2018-07-25T02:23:37.924Z,60.23
2018-07-25T02:24:04.081Z,60.23
2018-07-25T02:24:30.253Z,60.23
2018-07-25T02:24:56.389Z,60.32
2018-07-25T02:25:22.530Z,60.23
2018-07-25T02:25:48.684Z,59.94
2018-07-25T02:26:14.843Z,59.74
2018-07-25T02:26:40.990Z,60.03
2018-07-25T02:27:07.129Z,59.84
2018-07-25T02:27:33.266Z,60.03
2018-07-25T02:27:59.407Z,60.13
2018-07-25T02:28:25.549Z,60.52
2018-07-25T02:28:51.707Z,60.23
2018-07-25T02:29:17.840Z,59.94
2018-07-25T02:29:43.987Z,60.03
2018-07-25T02:30:10.157Z,60.03
2018-07-25T02:30:36.367Z,60.42
2018-07-25T02:31:02.544Z,60.42
2018-07-25T02:31:28.697Z,60.2
2018-07-25T02:31:54.840Z,60.39
2018-07-25T02:32:20.980Z,60.32
2018-07-25T02:32:47.109Z,60.42
2018-07-25T02:33:13.270Z,60.58
2018-07-25T02:33:39.434Z,60.2
2018-07-25T02:34:05.637Z,60.52
2018-07-25T02:34:31.817Z,60.42
2018-07-25T02:34:58.001Z,60.42
2018-07-25T02:35:24.233Z,60.97
2018-07-25T02:35:50.330Z,61
2018-07-25T02:36:16.519Z,60.97
2018-07-25T02:36:42.685Z,60.78
2018-07-25T02:37:08.832Z,61.1
2018-07-25T02:37:34.993Z,60.88
2018-07-25T02:38:01.135Z,60.91
2018-07-25T02:38:27.344Z,61
2018-07-25T02:38:53.528Z,60.81
2018-07-25T02:39:19.691Z,61.26
2018-07-25T02:39:45.910Z,61.07
2018-07-25T02:40:12.049Z,61.17
2018-07-25T02:40:38.196Z,60.88
2018-07-25T02:41:04.361Z,60.88
2018-07-25T02:41:30.534Z,60.88
2018-07-25T02:41:56.697Z,60.68
2018-07-25T02:42:22.922Z,60.97
2018-07-25T02:42:49.063Z,60.97
2018-07-25T02:43:15.249Z,60.78
2018-07-25T02:43:41.418Z,60.97
2018-07-25T02:44:07.582Z,60.49
2018-07-25T02:44:33.721Z,61.07
2018-07-25T02:44:59.899Z,60.88
2018-07-25T02:45:26.045Z,60.88
2018-07-25T02:45:52.210Z,60.97
2018-07-25T02:46:18.373Z,61
2018-07-25T02:46:44.508Z,60.88
2018-07-25T02:47:10.674Z,60.81
2018-07-25T02:47:36.813Z,60.78
2018-07-25T02:48:02.973Z,61.07
2018-07-25T02:48:29.137Z,60.88
2018-07-25T02:48:55.282Z,60.88
2018-07-25T02:49:21.428Z,61
2018-07-25T02:49:47.615Z,60.91
2018-07-25T02:50:13.751Z,60.61
2018-07-25T02:50:39.926Z,60.2
2018-07-25T02:51:06.057Z,60.49
2018-07-25T02:51:32.216Z,60.68
2018-07-25T02:51:58.385Z,60.39
2018-07-25T02:52:24.541Z,60.49
2018-07-25T02:52:50.705Z,60.58
2018-07-25T02:53:16.841Z,60.71
2018-07-25T02:53:42.981Z,60.1
2018-07-25T02:54:09.164Z,60.42
2018-07-25T02:54:35.327Z,61
2018-07-25T02:55:01.472Z,60.39
2018-07-25T02:55:27.610Z,60.39
2018-07-25T02:55:53.746Z,60.58
2018-07-25T02:56:19.889Z,60.49
2018-07-25T02:56:46.064Z,60.68
2018-07-25T02:57:12.194Z,61.07
2018-07-25T02:57:38.378Z,60.78
2018-07-25T02:58:04.541Z,60.97
2018-07-25T02:58:30.681Z,60.78
2018-07-25T02:58:56.842Z,60.78
2018-07-25T02:59:22.999Z,60.97
2018-07-25T02:59:49.184Z,60.88
2018-07-25T03:00:15.318Z,60.88
2018-07-25T03:00:41.468Z,61.07
2018-07-25T03:01:07.648Z,60.39
2018-07-25T03:01:33.783Z,60.39
2018-07-25T03:01:59.925Z,60.39
2018-07-25T03:02:26.087Z,60.3
2018-07-25T03:02:52.273Z,60.1
2018-07-25T03:03:18.409Z,60.78
2018-07-25T03:03:44.602Z,60.49
2018-07-25T03:04:10.740Z,60.68
2018-07-25T03:04:36.935Z,60.58
2018-07-25T03:05:03.080Z,60.97
2018-07-25T03:05:29.237Z,60.97
2018-07-25T03:05:55.382Z,60.97
2018-07-25T03:06:21.594Z,60.88
2018-07-25T03:06:47.777Z,60.97
2018-07-25T03:07:13.919Z,60.78
2018-07-25T03:07:40.104Z,60.97
2018-07-25T03:08:06.248Z,61.17
2018-07-25T03:08:32.440Z,60.88
2018-07-25T03:08:58.655Z,60.78
2018-07-25T03:09:24.830Z,60.88
2018-07-25T03:09:51.108Z,61.17
2018-07-25T03:10:17.424Z,60.68
2018-07-25T03:10:43.608Z,60.88
2018-07-25T03:11:09.743Z,61.17
2018-07-25T03:11:35.885Z,61.04
2018-07-25T03:12:02.047Z,61.62
2018-07-25T03:12:28.212Z,61.62
2018-07-25T03:12:54.359Z,61.62
2018-07-25T03:13:20.547Z,61.82
2018-07-25T03:13:46.682Z,61.82
2018-07-25T03:14:12.901Z,61.82
2018-07-25T03:14:39.065Z,61.17
2018-07-25T03:15:05.230Z,61.26
2018-07-25T03:15:31.387Z,61.14
2018-07-25T03:15:57.527Z,61.43
2018-07-25T03:16:23.696Z,61.82
2018-07-25T03:16:49.949Z,61.14
2018-07-25T03:17:16.049Z,61.85
2018-07-25T03:17:42.238Z,61.26
2018-07-25T03:18:08.381Z,61.14
2018-07-25T03:18:34.542Z,61.62
2018-07-25T03:19:00.712Z,61.62
2018-07-25T03:19:26.924Z,61.52
2018-07-25T03:19:53.094Z,61.72
2018-07-25T03:20:19.259Z,61.65
2018-07-25T03:20:45.422Z,61.65
2018-07-25T03:21:11.586Z,61.65
2018-07-25T03:21:37.751Z,61.72
2018-07-25T03:22:03.903Z,61.62
2018-07-25T03:22:30.082Z,61.72
2018-07-25T03:22:56.246Z,61.43
2018-07-25T03:23:22.408Z,61.62
2018-07-25T03:23:48.570Z,61.62
2018-07-25T03:24:14.706Z,61.72
2018-07-25T03:24:40.847Z,61.91
2018-07-25T03:25:07.033Z,61.62
2018-07-25T03:25:33.203Z,61.52
2018-07-25T03:25:59.387Z,61.43
2018-07-25T03:26:25.555Z,61.62
2018-07-25T03:26:51.749Z,61.43
2018-07-25T03:27:17.886Z,61.72
2018-07-25T03:27:44.024Z,61.82
2018-07-25T03:28:10.182Z,61.62
2018-07-25T03:28:36.319Z,61.62
2018-07-25T03:29:02.457Z,61.62
2018-07-25T03:29:28.600Z,61.43
2018-07-25T03:29:54.737Z,61.62
2018-07-25T03:30:20.898Z,61.52
2018-07-25T03:30:47.068Z,61.91
2018-07-25T03:31:13.266Z,61.43
2018-07-25T03:31:39.445Z,61.72
2018-07-25T03:32:05.549Z,61.62
2018-07-25T03:32:31.684Z,61.82
2018-07-25T03:32:57.819Z,61.43
2018-07-25T03:33:23.964Z,61.62
2018-07-25T03:33:50.100Z,61.72
2018-07-25T03:34:16.260Z,61.62
2018-07-25T03:34:42.401Z,61.72
2018-07-25T03:35:08.533Z,61.62
2018-07-25T03:35:34.669Z,61.62
2018-07-25T03:36:00.812Z,61.82
2018-07-25T03:36:26.949Z,61.91
2018-07-25T03:36:53.092Z,62.49
2018-07-25T03:37:19.237Z,62.2
2018-07-25T03:37:45.366Z,62.2
2018-07-25T03:38:11.505Z,62.2
2018-07-25T03:38:37.671Z,62.3
2018-07-25T03:39:03.825Z,61.91
2018-07-25T03:39:29.990Z,62.01
2018-07-25T03:39:56.148Z,62.2
2018-07-25T03:40:22.282Z,62.1
2018-07-25T03:40:48.427Z,62.1
2018-07-25T03:41:14.568Z,61.91
2018-07-25T03:41:40.711Z,61.91
2018-07-25T03:42:06.866Z,61.91
2018-07-25T03:42:33.023Z,61.82
2018-07-25T03:42:59.164Z,62.2
2018-07-25T03:43:25.337Z,62.01
2018-07-25T03:43:51.473Z,62.01
2018-07-25T03:44:17.615Z,61.91
2018-07-25T03:44:43.757Z,62.49
2018-07-25T03:45:09.922Z,62.2
2018-07-25T03:45:36.064Z,62.3
2018-07-25T03:46:02.198Z,62.2
2018-07-25T03:46:28.338Z,62.3
2018-07-25T03:46:54.479Z,62.4
2018-07-25T03:47:20.619Z,62.01
2018-07-25T03:47:46.751Z,62.2
2018-07-25T03:48:12.920Z,62.88
2018-07-25T03:48:39.055Z,62.59
2018-07-25T03:49:05.201Z,62.49
2018-07-25T03:49:31.334Z,62.49
2018-07-25T03:49:57.476Z,62.59
2018-07-25T03:50:23.619Z,62.79
2018-07-25T03:50:49.757Z,62.98
2018-07-25T03:51:15.892Z,63.07
2018-07-25T03:51:42.039Z,62.88
2018-07-25T03:52:08.173Z,62.88
2018-07-25T03:52:34.314Z,62.88
2018-07-25T03:53:00.474Z,62.88
2018-07-25T03:53:26.613Z,62.69
2018-07-25T03:53:52.747Z,62.69
2018-07-25T03:54:18.887Z,62.59
2018-07-25T03:54:45.034Z,62.69
2018-07-25T03:55:11.174Z,62.49
2018-07-25T03:55:37.317Z,62.79
2018-07-25T03:56:03.459Z,62.88
2018-07-25T03:56:29.598Z,62.49
2018-07-25T03:56:55.734Z,62.49
2018-07-25T03:57:21.874Z,62.88
2018-07-25T03:57:48.015Z,62.79
2018-07-25T03:58:14.150Z,62.98
2018-07-25T03:58:40.293Z,62.98
2018-07-25T03:59:06.427Z,63.37
2018-07-25T03:59:32.565Z,63.27
2018-07-25T03:59:58.710Z,62.98
2018-07-25T04:00:24.852Z,62.95
2018-07-25T04:00:50.991Z,62.98
2018-07-25T04:01:17.127Z,62.98
2018-07-25T04:01:43.269Z,62.85
2018-07-25T04:02:09.408Z,62.56
2018-07-25T04:02:35.623Z,62.59
2018-07-25T04:03:01.733Z,62.79
2018-07-25T04:03:27.918Z,62.85
2018-07-25T04:03:54.056Z,62.85
2018-07-25T04:04:20.191Z,62.79
2018-07-25T04:04:46.389Z,62.75
2018-07-25T04:05:12.519Z,62.75
2018-07-25T04:05:38.695Z,62.88
2018-07-25T04:06:04.834Z,62.88
2018-07-25T04:06:30.968Z,62.59
2018-07-25T04:06:57.100Z,63.07
2018-07-25T04:07:23.246Z,62.88
2018-07-25T04:07:49.379Z,62.95
2018-07-25T04:08:15.626Z,62.79
2018-07-25T04:08:41.712Z,62.88
2018-07-25T04:09:07.898Z,62.98
2018-07-25T04:09:34.016Z,63.07
2018-07-25T04:10:00.154Z,63.17
2018-07-25T04:10:26.295Z,63.07
2018-07-25T04:10:52.430Z,63.07
2018-07-25T04:11:18.564Z,63.07
2018-07-25T04:11:44.733Z,63.07
2018-07-25T04:12:10.872Z,62.98
2018-07-25T04:12:37.013Z,63.17
2018-07-25T04:13:03.158Z,62.95
2018-07-25T04:13:29.290Z,62.85
2018-07-25T04:13:55.426Z,62.98
2018-07-25T04:14:21.594Z,63.14
2018-07-25T04:14:47.732Z,63.53
2018-07-25T04:15:13.872Z,63.46
2018-07-25T04:15:40.021Z,63.24
2018-07-25T04:16:06.179Z,63.43
2018-07-25T04:16:32.319Z,63.46
2018-07-25T04:16:58.461Z,63.43
2018-07-25T04:17:24.619Z,63.62
2018-07-25T04:17:50.752Z,63.82
2018-07-25T04:18:16.899Z,63.72
2018-07-25T04:18:43.034Z,63.53
2018-07-25T04:19:09.195Z,63.53
2018-07-25T04:19:35.336Z,63.53
2018-07-25T04:20:01.480Z,63.85
2018-07-25T04:20:27.612Z,63.72
2018-07-25T04:20:53.760Z,63.24
2018-07-25T04:21:19.954Z,63.72
2018-07-25T04:21:46.088Z,63.62
2018-07-25T04:22:12.226Z,63.72
2018-07-25T04:22:38.365Z,64.4
2018-07-25T04:23:04.533Z,63.92
2018-07-25T04:23:30.690Z,64.5
2018-07-25T04:23:56.824Z,63.92
2018-07-25T04:24:22.964Z,64.2
2018-07-25T04:24:49.104Z,64.4
2018-07-25T04:25:15.255Z,63.62
2018-07-25T04:25:41.400Z,63.53
2018-07-25T04:26:07.534Z,63.72
2018-07-25T04:26:33.680Z,63.92
2018-07-25T04:26:59.815Z,63.82
2018-07-25T04:27:25.954Z,63.72
2018-07-25T04:27:52.141Z,63.92
2018-07-25T04:28:18.234Z,63.92
2018-07-25T04:28:44.387Z,63.62
2018-07-25T04:29:10.558Z,63.95
2018-07-25T04:29:36.706Z,63.62
2018-07-25T04:30:02.845Z,63.82
2018-07-25T04:30:28.980Z,63.72
2018-07-25T04:30:55.120Z,63.62
2018-07-25T04:31:21.266Z,63.75
2018-07-25T04:31:47.404Z,63.65
2018-07-25T04:32:13.544Z,63.72
2018-07-25T04:32:39.680Z,63.95
2018-07-25T04:33:05.816Z,63.92
2018-07-25T04:33:31.966Z,63.56
2018-07-25T04:33:58.126Z,63.53
2018-07-25T04:34:24.263Z,63.53
2018-07-25T04:34:50.443Z,63.37
2018-07-25T04:35:16.548Z,63.53
2018-07-25T04:35:42.687Z,63.72
2018-07-25T04:36:08.826Z,63.46
2018-07-25T04:36:34.969Z,63.56
2018-07-25T04:37:01.107Z,63.65
2018-07-25T04:37:27.294Z,63.85
2018-07-25T04:37:53.431Z,63.65
2018-07-25T04:38:19.584Z,63.85
2018-07-25T04:38:45.716Z,63.95
2018-07-25T04:39:11.886Z,63.95
2018-07-25T04:39:38.027Z,63.75
2018-07-25T04:40:04.167Z,63.56
2018-07-25T04:40:30.306Z,63.95
2018-07-25T04:40:56.452Z,63.65
2018-07-25T04:41:22.593Z,63.56
2018-07-25T04:41:48.749Z,63.46
2018-07-25T04:42:14.889Z,63.27
2018-07-25T04:42:41.108Z,63.37
2018-07-25T04:43:07.217Z,63.56
2018-07-25T04:43:33.350Z,63.46
2018-07-25T04:43:59.498Z,63.56
2018-07-25T04:44:25.677Z,63.27
2018-07-25T04:44:51.864Z,63.65
2018-07-25T04:45:18.031Z,63.65
2018-07-25T04:45:44.199Z,63.56
2018-07-25T04:46:10.465Z,63.75
2018-07-25T04:46:36.599Z,63.75
2018-07-25T04:47:02.660Z,63.37
2018-07-25T04:47:28.806Z,63.37
2018-07-25T04:47:54.948Z,63.56
2018-07-25T04:48:21.091Z,64.14
2018-07-25T04:48:47.277Z,63.95
2018-07-25T04:49:13.438Z,63.56
2018-07-25T04:49:39.578Z,63.95
2018-07-25T04:50:05.743Z,63.85
2018-07-25T04:50:31.911Z,63.75
2018-07-25T04:50:58.085Z,63.85
2018-07-25T04:51:24.222Z,63.75
2018-07-25T04:51:50.358Z,63.75
2018-07-25T04:52:16.498Z,63.95
2018-07-25T04:52:42.663Z,64.14
2018-07-25T04:53:08.808Z,63.37
2018-07-25T04:53:34.978Z,63.46
2018-07-25T04:54:01.111Z,63.37
2018-07-25T04:54:27.255Z,63.46
2018-07-25T04:54:53.401Z,63.46
2018-07-25T04:55:19.562Z,63.46
2018-07-25T04:55:45.698Z,63.46
2018-07-25T04:56:11.929Z,64.14
2018-07-25T04:56:38.022Z,63.75
2018-07-25T04:57:04.167Z,63.37
2018-07-25T04:57:30.332Z,63.75
2018-07-25T04:57:56.522Z,63.65
2018-07-25T04:58:22.664Z,63.56
2018-07-25T04:58:48.847Z,63.37
2018-07-25T04:59:15.009Z,63.46
2018-07-25T04:59:41.195Z,63.75
2018-07-25T05:00:07.340Z,63.37
2018-07-25T05:00:33.474Z,63.27
2018-07-25T05:00:59.641Z,63.75
2018-07-25T05:01:25.788Z,63.17
2018-07-25T05:01:51.926Z,63.07
2018-07-25T05:02:18.059Z,63.01
2018-07-25T05:02:44.247Z,63.4
2018-07-25T05:03:10.405Z,62.91
2018-07-25T05:03:36.549Z,62.82
2018-07-25T05:04:02.691Z,63.01
2018-07-25T05:04:28.826Z,63.01
2018-07-25T05:04:54.972Z,62.82
2018-07-25T05:05:21.112Z,62.91
2018-07-25T05:05:47.270Z,63.1
2018-07-25T05:06:13.407Z,63.1
2018-07-25T05:06:39.550Z,63.01
2018-07-25T05:07:05.774Z,63.1
2018-07-25T05:07:31.844Z,63.1
2018-07-25T05:07:57.995Z,62.91
2018-07-25T05:08:24.140Z,62.82
2018-07-25T05:08:50.306Z,62.91
2018-07-25T05:09:16.448Z,62.91
2018-07-25T05:09:42.596Z,63.1
2018-07-25T05:10:08.726Z,62.62
2018-07-25T05:10:34.869Z,63.04
2018-07-25T05:11:01.037Z,62.82
2018-07-25T05:11:27.196Z,62.62
2018-07-25T05:11:53.340Z,63.1
2018-07-25T05:12:19.483Z,62.91
2018-07-25T05:12:45.616Z,62.52
2018-07-25T05:13:11.755Z,62.95
2018-07-25T05:13:37.915Z,62.55
2018-07-25T05:14:04.082Z,62.07
2018-07-25T05:14:30.220Z,62.07
2018-07-25T05:14:56.357Z,62.26
2018-07-25T05:15:22.499Z,62.46
2018-07-25T05:15:48.642Z,61.98
2018-07-25T05:16:14.800Z,62.16
2018-07-25T05:16:40.947Z,61.98
2018-07-25T05:17:07.080Z,61.98
2018-07-25T05:17:33.217Z,61.78
2018-07-25T05:17:59.428Z,61.98
2018-07-25T05:18:25.520Z,61.98
2018-07-25T05:18:51.664Z,62.26
2018-07-25T05:19:17.805Z,61.88
2018-07-25T05:19:43.945Z,61.88
2018-07-25T05:20:10.112Z,61.78
2018-07-25T05:20:36.257Z,61.88
2018-07-25T05:21:02.393Z,62.26
2018-07-25T05:21:28.536Z,61.78
2018-07-25T05:21:54.668Z,61.88
2018-07-25T05:22:20.808Z,61.98
2018-07-25T05:22:46.954Z,62.26
2018-07-25T05:23:13.135Z,62.26
2018-07-25T05:23:39.289Z,61.98
2018-07-25T05:24:05.437Z,62.36
2018-07-25T05:24:31.579Z,61.98
2018-07-25T05:24:57.717Z,62.26
2018-07-25T05:25:23.906Z,61.98
2018-07-25T05:25:50.050Z,61.88
2018-07-25T05:26:16.183Z,61.98
2018-07-25T05:26:42.350Z,61.98
2018-07-25T05:27:08.514Z,61.98
2018-07-25T05:27:34.656Z,62.36
2018-07-25T05:28:00.796Z,62.46
2018-07-25T05:28:26.946Z,61.98
2018-07-25T05:28:53.088Z,62.07
2018-07-25T05:29:19.226Z,62.26
2018-07-25T05:29:45.395Z,61.88
2018-07-25T05:30:11.564Z,62.1
2018-07-25T05:30:37.766Z,61.81
2018-07-25T05:31:03.915Z,61.81
2018-07-25T05:31:30.068Z,61.81
2018-07-25T05:31:56.215Z,61.81
2018-07-25T05:32:22.373Z,61.71
2018-07-25T05:32:48.520Z,62.01
2018-07-25T05:33:14.657Z,61.81
2018-07-25T05:33:40.807Z,61.71
2018-07-25T05:34:06.941Z,61.71
2018-07-25T05:34:33.081Z,61.52
2018-07-25T05:34:59.252Z,61.81
2018-07-25T05:35:25.387Z,61.91
2018-07-25T05:35:51.527Z,61.61
2018-07-25T05:36:17.669Z,62.1
2018-07-25T05:36:43.812Z,61.91
2018-07-25T05:37:09.950Z,61.22
2018-07-25T05:37:36.092Z,62.1
2018-07-25T05:38:02.240Z,61.22